sensor_id;sensor_type;location;lat;lon;timestamp;P1;durP1;ratioP1;P2;durP2;ratioP2
35558;SDS011;21661;50.794;-1.066;2023-07-28T00:00:50;2.20;;;0.50;;
35558;SDS011;21661;50.794;-1.066;2023-07-28T00:03:15;1.27;;;0.50;;
35558;SDS011;21661;50.794;-1.066;2023-07-28T00:05:41;1.50;;;0.40;;
35558;SDS011;21661;50.794;-1.066;2023-07-28T00:08:06;2.03;;;0.55;;
35558;SDS011;21661;50.794;-1.066;2023-07-28T00:10:32;1.58;;;0.50;;
35558;SDS011;21661;50.794;-1.066;2023-07-28T00:12:58;1.83;;;0.40;;
35558;SDS011;21661;50.794;-1.066;2023-07-28T00:15:24;1.83;;;0.60;;
35558;SDS011;21661;50.794;-1.066;2023-07-28T00:17:49;1.98;;;0.60;;
35558;SDS011;21661;50.794;-1.066;2023-07-28T00:20:15;2.03;;;0.55;;
35558;SDS011;21661;50.794;-1.066;2023-07-28T00:22:41;2.10;;;0.57;;
35558;SDS011;21661;50.794;-1.066;2023-07-28T00:25:06;2.50;;;0.60;;
35558;SDS011;21661;50.794;-1.066;2023-07-28T00:27:34;1.90;;;0.43;;
35558;SDS011;21661;50.794;-1.066;2023-07-28T00:29:59;2.70;;;0.60;;
35558;SDS011;21661;50.794;-1.066;2023-07-28T00:32:25;1.88;;;0.60;;
35558;SDS011;21661;50.794;-1.066;2023-07-28T00:34:50;1.77;;;0.47;;
35558;SDS011;21661;50.794;-1.066;2023-07-28T00:37:16;2.13;;;0.55;;
35558;SDS011;21661;50.794;-1.066;2023-07-28T00:39:41;1.63;;;0.43;;
35558;SDS011;21661;50.794;-1.066;2023-07-28T00:42:07;1.33;;;0.40;;
35558;SDS011;21661;50.794;-1.066;2023-07-28T00:44:34;1.90;;;0.70;;
35558;SDS011;21661;50.794;-1.066;2023-07-28T00:47:00;1.67;;;0.40;;
35558;SDS011;21661;50.794;-1.066;2023-07-28T00:49:25;2.40;;;0.60;;
35558;SDS011;21661;50.794;-1.066;2023-07-28T00:51:51;1.73;;;0.47;;
35558;SDS011;21661;50.794;-1.066;2023-07-28T00:54:18;1.58;;;0.43;;
35558;SDS011;21661;50.794;-1.066;2023-07-28T00:56:44;2.25;;;0.50;;
35558;SDS011;21661;50.794;-1.066;2023-07-28T00:59:09;1.85;;;0.45;;
35558;SDS011;21661;50.794;-1.066;2023-07-28T01:01:36;2.17;;;0.70;;
35558;SDS011;21661;50.794;-1.066;2023-07-28T01:04:01;1.70;;;0.35;;
35558;SDS011;21661;50.794;-1.066;2023-07-28T01:06:39;1.48;;;0.40;;
35558;SDS011;21661;50.794;-1.066;2023-07-28T01:09:12;2.67;;;0.50;;
35558;SDS011;21661;50.794;-1.066;2023-07-28T01:11:56;1.40;;;0.40;;
35558;SDS011;21661;50.794;-1.066;2023-07-28T01:14:22;1.83;;;0.60;;
35558;SDS011;21661;50.794;-1.066;2023-07-28T01:16:48;2.35;;;0.40;;
35558;SDS011;21661;50.794;-1.066;2023-07-28T01:19:18;1.58;;;0.43;;
35558;SDS011;21661;50.794;-1.066;2023-07-28T01:21:46;1.73;;;0.40;;
35558;SDS011;21661;50.794;-1.066;2023-07-28T01:24:22;1.67;;;0.43;;
35558;SDS011;21661;50.794;-1.066;2023-07-28T01:27:05;1.92;;;0.50;;
35558;SDS011;21661;50.794;-1.066;2023-07-28T01:29:32;1.92;;;0.57;;
35558;SDS011;21661;50.794;-1.066;2023-07-28T01:31:59;1.63;;;0.32;;
35558;SDS011;21661;50.794;-1.066;2023-07-28T01:34:25;1.05;;;0.40;;
35558;SDS011;21661;50.794;-1.066;2023-07-28T01:36:50;1.33;;;0.47;;
35558;SDS011;21661;50.794;-1.066;2023-07-28T01:39:16;1.67;;;0.50;;
35558;SDS011;21661;50.794;-1.066;2023-07-28T01:41:41;1.90;;;0.40;;
35558;SDS011;21661;50.794;-1.066;2023-07-28T01:44:09;1.83;;;0.47;;
35558;SDS011;21661;50.794;-1.066;2023-07-28T01:46:35;2.33;;;0.52;;
35558;SDS011;21661;50.794;-1.066;2023-07-28T01:49:01;1.00;;;0.40;;
35558;SDS011;21661;50.794;-1.066;2023-07-28T01:51:27;2.05;;;0.40;;
35558;SDS011;21661;50.794;-1.066;2023-07-28T01:53:52;2.28;;;0.50;;
35558;SDS011;21661;50.794;-1.066;2023-07-28T01:56:18;1.55;;;0.40;;
35558;SDS011;21661;50.794;-1.066;2023-07-28T01:58:44;1.45;;;0.38;;
35558;SDS011;21661;50.794;-1.066;2023-07-28T02:01:09;2.03;;;0.60;;
35558;SDS011;21661;50.794;-1.066;2023-07-28T02:03:37;1.55;;;0.45;;
35558;SDS011;21661;50.794;-1.066;2023-07-28T02:06:03;1.83;;;0.50;;
35558;SDS011;21661;50.794;-1.066;2023-07-28T02:08:29;2.00;;;0.50;;
35558;SDS011;21661;50.794;-1.066;2023-07-28T02:10:55;1.73;;;0.40;;
35558;SDS011;21661;50.794;-1.066;2023-07-28T02:13:20;1.63;;;0.45;;
35558;SDS011;21661;50.794;-1.066;2023-07-28T02:15:46;2.00;;;0.50;;
35558;SDS011;21661;50.794;-1.066;2023-07-28T02:18:11;0.85;;;0.30;;
35558;SDS011;21661;50.794;-1.066;2023-07-28T02:20:37;1.00;;;0.30;;
35558;SDS011;21661;50.794;-1.066;2023-07-28T02:23:04;0.30;;;0.13;;
35558;SDS011;21661;50.794;-1.066;2023-07-28T02:25:29;0.80;;;0.30;;
35558;SDS011;21661;50.794;-1.066;2023-07-28T02:27:55;0.65;;;0.10;;
35558;SDS011;21661;50.794;-1.066;2023-07-28T02:30:20;0.40;;;0.20;;
35558;SDS011;21661;50.794;-1.066;2023-07-28T02:32:46;0.55;;;0.10;;
35558;SDS011;21661;50.794;-1.066;2023-07-28T02:35:12;0.75;;;0.20;;
35558;SDS011;21661;50.794;-1.066;2023-07-28T02:37:37;0.73;;;0.20;;
35558;SDS011;21661;50.794;-1.066;2023-07-28T02:40:03;0.38;;;0.00;;
35558;SDS011;21661;50.794;-1.066;2023-07-28T02:42:29;0.75;;;0.28;;
35558;SDS011;21661;50.794;-1.066;2023-07-28T02:44:55;0.13;;;0.00;;
35558;SDS011;21661;50.794;-1.066;2023-07-28T02:47:21;0.43;;;0.03;;
35558;SDS011;21661;50.794;-1.066;2023-07-28T02:49:46;0.30;;;0.10;;
35558;SDS011;21661;50.794;-1.066;2023-07-28T02:52:12;0.10;;;0.00;;
35558;SDS011;21661;50.794;-1.066;2023-07-28T02:54:38;0.50;;;0.00;;
35558;SDS011;21661;50.794;-1.066;2023-07-28T02:57:03;0.22;;;0.00;;
35558;SDS011;21661;50.794;-1.066;2023-07-28T02:59:29;0.20;;;0.00;;
35558;SDS011;21661;50.794;-1.066;2023-07-28T03:01:54;0.38;;;0.10;;
35558;SDS011;21661;50.794;-1.066;2023-07-28T03:04:22;0.15;;;0.00;;
35558;SDS011;21661;50.794;-1.066;2023-07-28T03:06:47;0.00;;;0.00;;
35558;SDS011;21661;50.794;-1.066;2023-07-28T03:09:13;0.25;;;0.00;;
35558;SDS011;21661;50.794;-1.066;2023-07-28T03:11:40;0.20;;;0.00;;
35558;SDS011;21661;50.794;-1.066;2023-07-28T03:14:07;0.10;;;0.00;;
35558;SDS011;21661;50.794;-1.066;2023-07-28T03:16:33;0.10;;;0.00;;
35558;SDS011;21661;50.794;-1.066;2023-07-28T03:18:58;0.50;;;0.10;;
35558;SDS011;21661;50.794;-1.066;2023-07-28T03:21:24;0.03;;;0.00;;
35558;SDS011;21661;50.794;-1.066;2023-07-28T03:23:49;0.00;;;0.00;;
35558;SDS011;21661;50.794;-1.066;2023-07-28T03:26:15;0.20;;;0.00;;
35558;SDS011;21661;50.794;-1.066;2023-07-28T03:28:40;0.20;;;0.03;;
35558;SDS011;21661;50.794;-1.066;2023-07-28T03:31:06;0.10;;;0.00;;
35558;SDS011;21661;50.794;-1.066;2023-07-28T03:33:32;0.22;;;0.00;;
35558;SDS011;21661;50.794;-1.066;2023-07-28T03:35:57;0.30;;;0.00;;
35558;SDS011;21661;50.794;-1.066;2023-07-28T03:38:23;0.10;;;0.00;;
35558;SDS011;21661;50.794;-1.066;2023-07-28T03:40:49;0.30;;;0.00;;
35558;SDS011;21661;50.794;-1.066;2023-07-28T03:43:15;0.00;;;0.00;;
35558;SDS011;21661;50.794;-1.066;2023-07-28T03:45:40;0.20;;;0.00;;
35558;SDS011;21661;50.794;-1.066;2023-07-28T03:48:06;0.15;;;0.00;;
35558;SDS011;21661;50.794;-1.066;2023-07-28T03:50:32;0.10;;;0.00;;
35558;SDS011;21661;50.794;-1.066;2023-07-28T03:52:57;0.00;;;0.00;;
35558;SDS011;21661;50.794;-1.066;2023-07-28T03:55:23;0.30;;;0.00;;
35558;SDS011;21661;50.794;-1.066;2023-07-28T03:57:49;0.15;;;0.00;;
35558;SDS011;21661;50.794;-1.066;2023-07-28T04:00:14;0.00;;;0.00;;
35558;SDS011;21661;50.794;-1.066;2023-07-28T04:02:41;0.00;;;0.00;;
35558;SDS011;21661;50.794;-1.066;2023-07-28T04:05:07;0.10;;;0.00;;
35558;SDS011;21661;50.794;-1.066;2023-07-28T04:07:33;0.20;;;0.00;;
35558;SDS011;21661;50.794;-1.066;2023-07-28T04:09:58;0.35;;;0.00;;
35558;SDS011;21661;50.794;-1.066;2023-07-28T04:12:24;0.28;;;0.00;;
35558;SDS011;21661;50.794;-1.066;2023-07-28T04:14:49;0.25;;;0.00;;
35558;SDS011;21661;50.794;-1.066;2023-07-28T04:17:15;0.10;;;0.00;;
35558;SDS011;21661;50.794;-1.066;2023-07-28T04:19:41;0.65;;;0.00;;
35558;SDS011;21661;50.794;-1.066;2023-07-28T04:22:06;0.10;;;0.00;;
35558;SDS011;21661;50.794;-1.066;2023-07-28T04:24:32;0.22;;;0.00;;
35558;SDS011;21661;50.794;-1.066;2023-07-28T04:26:57;0.17;;;0.00;;
35558;SDS011;21661;50.794;-1.066;2023-07-28T04:29:23;0.00;;;0.00;;
35558;SDS011;21661;50.794;-1.066;2023-07-28T04:31:49;0.20;;;0.10;;
35558;SDS011;21661;50.794;-1.066;2023-07-28T04:34:14;0.28;;;0.00;;
35558;SDS011;21661;50.794;-1.066;2023-07-28T04:36:40;0.50;;;0.10;;
35558;SDS011;21661;50.794;-1.066;2023-07-28T04:39:05;0.32;;;0.00;;
35558;SDS011;21661;50.794;-1.066;2023-07-28T04:41:31;0.10;;;0.00;;
35558;SDS011;21661;50.794;-1.066;2023-07-28T04:43:57;0.30;;;0.00;;
35558;SDS011;21661;50.794;-1.066;2023-07-28T04:46:22;0.05;;;0.00;;
35558;SDS011;21661;50.794;-1.066;2023-07-28T04:48:48;0.30;;;0.00;;
35558;SDS011;21661;50.794;-1.066;2023-07-28T04:51:13;0.00;;;0.00;;
35558;SDS011;21661;50.794;-1.066;2023-07-28T04:53:39;0.00;;;0.00;;
35558;SDS011;21661;50.794;-1.066;2023-07-28T04:56:04;0.00;;;0.00;;
35558;SDS011;21661;50.794;-1.066;2023-07-28T04:58:30;0.22;;;0.00;;
35558;SDS011;21661;50.794;-1.066;2023-07-28T05:00:56;0.00;;;0.00;;
35558;SDS011;21661;50.794;-1.066;2023-07-28T05:03:23;0.17;;;0.00;;
35558;SDS011;21661;50.794;-1.066;2023-07-28T05:05:49;0.20;;;0.00;;
35558;SDS011;21661;50.794;-1.066;2023-07-28T05:08:15;0.05;;;0.00;;
35558;SDS011;21661;50.794;-1.066;2023-07-28T05:10:41;0.85;;;0.00;;
35558;SDS011;21661;50.794;-1.066;2023-07-28T05:13:08;0.00;;;0.00;;
35558;SDS011;21661;50.794;-1.066;2023-07-28T05:15:33;0.20;;;0.00;;
35558;SDS011;21661;50.794;-1.066;2023-07-28T05:17:59;0.13;;;0.00;;
35558;SDS011;21661;50.794;-1.066;2023-07-28T05:20:25;0.10;;;0.00;;
35558;SDS011;21661;50.794;-1.066;2023-07-28T05:22:51;0.00;;;0.00;;
35558;SDS011;21661;50.794;-1.066;2023-07-28T05:25:16;0.10;;;0.00;;
35558;SDS011;21661;50.794;-1.066;2023-07-28T05:27:42;0.00;;;0.00;;
35558;SDS011;21661;50.794;-1.066;2023-07-28T05:30:07;0.10;;;0.00;;
35558;SDS011;21661;50.794;-1.066;2023-07-28T05:32:33;0.32;;;0.00;;
35558;SDS011;21661;50.794;-1.066;2023-07-28T05:34:59;0.00;;;0.00;;
35558;SDS011;21661;50.794;-1.066;2023-07-28T05:37:24;0.03;;;0.00;;
35558;SDS011;21661;50.794;-1.066;2023-07-28T05:39:50;0.00;;;0.00;;
35558;SDS011;21661;50.794;-1.066;2023-07-28T05:42:16;0.17;;;0.00;;
35558;SDS011;21661;50.794;-1.066;2023-07-28T05:44:41;0.10;;;0.00;;
35558;SDS011;21661;50.794;-1.066;2023-07-28T05:47:07;0.10;;;0.00;;
35558;SDS011;21661;50.794;-1.066;2023-07-28T05:49:33;0.22;;;0.00;;
35558;SDS011;21661;50.794;-1.066;2023-07-28T05:51:58;0.10;;;0.00;;
35558;SDS011;21661;50.794;-1.066;2023-07-28T05:54:24;0.00;;;0.00;;
35558;SDS011;21661;50.794;-1.066;2023-07-28T05:56:50;0.00;;;0.00;;
35558;SDS011;21661;50.794;-1.066;2023-07-28T05:59:15;0.00;;;0.00;;
35558;SDS011;21661;50.794;-1.066;2023-07-28T06:01:41;0.38;;;0.00;;
35558;SDS011;21661;50.794;-1.066;2023-07-28T06:04:07;0.00;;;0.00;;
35558;SDS011;21661;50.794;-1.066;2023-07-28T06:06:32;0.20;;;0.00;;
35558;SDS011;21661;50.794;-1.066;2023-07-28T06:08:58;0.10;;;0.00;;
35558;SDS011;21661;50.794;-1.066;2023-07-28T06:11:23;0.00;;;0.00;;
35558;SDS011;21661;50.794;-1.066;2023-07-28T06:13:49;0.20;;;0.00;;
35558;SDS011;21661;50.794;-1.066;2023-07-28T06:16:15;0.00;;;0.00;;
35558;SDS011;21661;50.794;-1.066;2023-07-28T06:18:40;0.00;;;0.00;;
35558;SDS011;21661;50.794;-1.066;2023-07-28T06:21:06;0.25;;;0.00;;
35558;SDS011;21661;50.794;-1.066;2023-07-28T06:23:32;0.00;;;0.00;;
35558;SDS011;21661;50.794;-1.066;2023-07-28T06:25:58;0.00;;;0.00;;
35558;SDS011;21661;50.794;-1.066;2023-07-28T06:28:24;0.10;;;0.00;;
35558;SDS011;21661;50.794;-1.066;2023-07-28T06:30:53;0.00;;;0.00;;
35558;SDS011;21661;50.794;-1.066;2023-07-28T06:33:20;0.00;;;0.00;;
35558;SDS011;21661;50.794;-1.066;2023-07-28T06:35:46;0.00;;;0.00;;
35558;SDS011;21661;50.794;-1.066;2023-07-28T06:38:11;0.00;;;0.00;;
35558;SDS011;21661;50.794;-1.066;2023-07-28T06:40:37;0.00;;;0.00;;
35558;SDS011;21661;50.794;-1.066;2023-07-28T06:43:02;0.00;;;0.00;;
35558;SDS011;21661;50.794;-1.066;2023-07-28T06:45:28;0.00;;;0.00;;
35558;SDS011;21661;50.794;-1.066;2023-07-28T06:47:54;0.00;;;0.00;;
35558;SDS011;21661;50.794;-1.066;2023-07-28T06:50:19;1.00;;;0.00;;
35558;SDS011;21661;50.794;-1.066;2023-07-28T06:52:45;0.00;;;0.00;;
35558;SDS011;21661;50.794;-1.066;2023-07-28T06:55:12;0.20;;;0.00;;
35558;SDS011;21661;50.794;-1.066;2023-07-28T06:57:39;0.10;;;0.00;;
35558;SDS011;21661;50.794;-1.066;2023-07-28T07:00:05;0.20;;;0.00;;
35558;SDS011;21661;50.794;-1.066;2023-07-28T07:02:34;0.00;;;0.00;;
35558;SDS011;21661;50.794;-1.066;2023-07-28T07:05:00;0.00;;;0.00;;
35558;SDS011;21661;50.794;-1.066;2023-07-28T07:07:25;0.13;;;0.00;;
35558;SDS011;21661;50.794;-1.066;2023-07-28T07:09:51;0.35;;;0.00;;
35558;SDS011;21661;50.794;-1.066;2023-07-28T07:12:17;0.00;;;0.00;;
35558;SDS011;21661;50.794;-1.066;2023-07-28T07:14:44;0.30;;;0.00;;
35558;SDS011;21661;50.794;-1.066;2023-07-28T07:17:09;0.00;;;0.00;;
35558;SDS011;21661;50.794;-1.066;2023-07-28T07:19:35;0.10;;;0.00;;
35558;SDS011;21661;50.794;-1.066;2023-07-28T07:22:01;0.00;;;0.00;;
35558;SDS011;21661;50.794;-1.066;2023-07-28T07:24:27;0.10;;;0.00;;
35558;SDS011;21661;50.794;-1.066;2023-07-28T07:26:52;0.10;;;0.00;;
35558;SDS011;21661;50.794;-1.066;2023-07-28T07:29:18;0.30;;;0.00;;
35558;SDS011;21661;50.794;-1.066;2023-07-28T07:31:43;0.10;;;0.00;;
35558;SDS011;21661;50.794;-1.066;2023-07-28T07:34:09;0.20;;;0.00;;
35558;SDS011;21661;50.794;-1.066;2023-07-28T07:36:34;0.10;;;0.00;;
35558;SDS011;21661;50.794;-1.066;2023-07-28T07:39:00;0.30;;;0.00;;
35558;SDS011;21661;50.794;-1.066;2023-07-28T07:41:25;0.00;;;0.00;;
35558;SDS011;21661;50.794;-1.066;2023-07-28T07:43:54;0.00;;;0.00;;
35558;SDS011;21661;50.794;-1.066;2023-07-28T07:46:20;0.10;;;0.10;;
35558;SDS011;21661;50.794;-1.066;2023-07-28T07:48:46;0.00;;;0.00;;
35558;SDS011;21661;50.794;-1.066;2023-07-28T07:51:11;0.00;;;0.00;;
35558;SDS011;21661;50.794;-1.066;2023-07-28T07:53:37;0.10;;;0.00;;
35558;SDS011;21661;50.794;-1.066;2023-07-28T07:56:03;0.13;;;0.00;;
35558;SDS011;21661;50.794;-1.066;2023-07-28T07:58:29;0.32;;;0.00;;
35558;SDS011;21661;50.794;-1.066;2023-07-28T08:00:55;0.10;;;0.00;;
35558;SDS011;21661;50.794;-1.066;2023-07-28T08:03:21;0.90;;;0.05;;
35558;SDS011;21661;50.794;-1.066;2023-07-28T08:05:47;0.47;;;0.08;;
35558;SDS011;21661;50.794;-1.066;2023-07-28T08:08:13;0.00;;;0.00;;
35558;SDS011;21661;50.794;-1.066;2023-07-28T08:10:42;0.20;;;0.00;;
35558;SDS011;21661;50.794;-1.066;2023-07-28T08:13:09;0.28;;;0.08;;
35558;SDS011;21661;50.794;-1.066;2023-07-28T08:15:34;0.38;;;0.00;;
35558;SDS011;21661;50.794;-1.066;2023-07-28T08:18:00;0.20;;;0.00;;
35558;SDS011;21661;50.794;-1.066;2023-07-28T08:20:26;0.63;;;0.00;;
35558;SDS011;21661;50.794;-1.066;2023-07-28T08:22:51;0.63;;;0.30;;
35558;SDS011;21661;50.794;-1.066;2023-07-28T08:25:17;0.43;;;0.00;;
35558;SDS011;21661;50.794;-1.066;2023-07-28T08:27:43;0.32;;;0.00;;
35558;SDS011;21661;50.794;-1.066;2023-07-28T08:30:09;0.52;;;0.05;;
35558;SDS011;21661;50.794;-1.066;2023-07-28T08:32:35;0.40;;;0.00;;
35558;SDS011;21661;50.794;-1.066;2023-07-28T08:35:01;0.22;;;0.00;;
35558;SDS011;21661;50.794;-1.066;2023-07-28T08:37:28;0.20;;;0.00;;
35558;SDS011;21661;50.794;-1.066;2023-07-28T08:39:54;0.30;;;0.00;;
35558;SDS011;21661;50.794;-1.066;2023-07-28T08:42:20;0.30;;;0.00;;
35558;SDS011;21661;50.794;-1.066;2023-07-28T08:44:48;0.13;;;0.10;;
35558;SDS011;21661;50.794;-1.066;2023-07-28T08:47:17;0.00;;;0.00;;
35558;SDS011;21661;50.794;-1.066;2023-07-28T08:49:42;0.05;;;0.00;;
35558;SDS011;21661;50.794;-1.066;2023-07-28T08:52:08;1.00;;;0.05;;
35558;SDS011;21661;50.794;-1.066;2023-07-28T08:54:34;0.30;;;0.10;;
35558;SDS011;21661;50.794;-1.066;2023-07-28T08:56:59;0.10;;;0.00;;
35558;SDS011;21661;50.794;-1.066;2023-07-28T08:59:26;0.10;;;0.10;;
35558;SDS011;21661;50.794;-1.066;2023-07-28T09:01:53;0.22;;;0.10;;
35558;SDS011;21661;50.794;-1.066;2023-07-28T09:04:21;0.30;;;0.10;;
35558;SDS011;21661;50.794;-1.066;2023-07-28T09:06:48;1.13;;;0.10;;
35558;SDS011;21661;50.794;-1.066;2023-07-28T09:09:14;0.13;;;0.10;;
35558;SDS011;21661;50.794;-1.066;2023-07-28T09:11:47;0.45;;;0.10;;
35558;SDS011;21661;50.794;-1.066;2023-07-28T09:14:15;0.60;;;0.20;;
35558;SDS011;21661;50.794;-1.066;2023-07-28T09:16:42;0.15;;;0.10;;
35558;SDS011;21661;50.794;-1.066;2023-07-28T09:19:08;0.40;;;0.10;;
35558;SDS011;21661;50.794;-1.066;2023-07-28T09:21:34;0.47;;;0.10;;
35558;SDS011;21661;50.794;-1.066;2023-07-28T09:24:04;0.30;;;0.10;;
35558;SDS011;21661;50.794;-1.066;2023-07-28T09:26:41;0.45;;;0.08;;
35558;SDS011;21661;50.794;-1.066;2023-07-28T09:31:46;0.35;;;0.10;;
35558;SDS011;21661;50.794;-1.066;2023-07-28T09:34:13;0.50;;;0.10;;
35558;SDS011;21661;50.794;-1.066;2023-07-28T09:36:55;0.68;;;0.08;;
35558;SDS011;21661;50.794;-1.066;2023-07-28T09:39:22;0.10;;;0.10;;
35558;SDS011;21661;50.794;-1.066;2023-07-28T09:41:48;1.13;;;0.10;;
35558;SDS011;21661;50.794;-1.066;2023-07-28T09:44:14;0.03;;;0.00;;
35558;SDS011;21661;50.794;-1.066;2023-07-28T09:46:53;0.35;;;0.10;;
35558;SDS011;21661;50.794;-1.066;2023-07-28T09:49:21;0.63;;;0.10;;
35558;SDS011;21661;50.794;-1.066;2023-07-28T09:51:53;0.10;;;0.00;;
35558;SDS011;21661;50.794;-1.066;2023-07-28T09:54:27;0.20;;;0.10;;
35558;SDS011;21661;50.794;-1.066;2023-07-28T09:56:58;0.08;;;0.08;;
35558;SDS011;21661;50.794;-1.066;2023-07-28T09:59:42;0.20;;;0.00;;
35558;SDS011;21661;50.794;-1.066;2023-07-28T10:02:11;0.00;;;0.00;;
35558;SDS011;21661;50.794;-1.066;2023-07-28T10:04:37;0.93;;;0.10;;
35558;SDS011;21661;50.794;-1.066;2023-07-28T10:07:06;0.03;;;0.00;;
35558;SDS011;21661;50.794;-1.066;2023-07-28T10:09:32;0.73;;;0.30;;
35558;SDS011;21661;50.794;-1.066;2023-07-28T10:11:59;0.47;;;0.17;;
35558;SDS011;21661;50.794;-1.066;2023-07-28T10:16:53;0.17;;;0.05;;
35558;SDS011;21661;50.794;-1.066;2023-07-28T10:19:19;0.30;;;0.10;;
35558;SDS011;21661;50.794;-1.066;2023-07-28T10:21:46;0.57;;;0.20;;
35558;SDS011;21661;50.794;-1.066;2023-07-28T10:24:11;0.10;;;0.10;;
35558;SDS011;21661;50.794;-1.066;2023-07-28T10:26:38;0.40;;;0.10;;
35558;SDS011;21661;50.794;-1.066;2023-07-28T10:29:15;0.35;;;0.20;;
35558;SDS011;21661;50.794;-1.066;2023-07-28T10:31:53;0.40;;;0.20;;
35558;SDS011;21661;50.794;-1.066;2023-07-28T10:34:20;0.95;;;0.30;;
35558;SDS011;21661;50.794;-1.066;2023-07-28T10:36:50;0.95;;;0.20;;
35558;SDS011;21661;50.794;-1.066;2023-07-28T10:39:24;0.75;;;0.20;;
35558;SDS011;21661;50.794;-1.066;2023-07-28T10:42:00;0.35;;;0.20;;
35558;SDS011;21661;50.794;-1.066;2023-07-28T10:44:31;0.28;;;0.20;;
35558;SDS011;21661;50.794;-1.066;2023-07-28T10:46:58;0.73;;;0.20;;
35558;SDS011;21661;50.794;-1.066;2023-07-28T10:49:24;0.77;;;0.20;;
35558;SDS011;21661;50.794;-1.066;2023-07-28T10:51:50;0.57;;;0.17;;
35558;SDS011;21661;50.794;-1.066;2023-07-28T10:54:16;0.43;;;0.30;;
35558;SDS011;21661;50.794;-1.066;2023-07-28T10:56:44;0.98;;;0.20;;
35558;SDS011;21661;50.794;-1.066;2023-07-28T10:59:11;1.08;;;0.30;;
35558;SDS011;21661;50.794;-1.066;2023-07-28T11:01:37;0.68;;;0.20;;
35558;SDS011;21661;50.794;-1.066;2023-07-28T11:04:08;1.23;;;0.40;;
35558;SDS011;21661;50.794;-1.066;2023-07-28T11:06:39;0.52;;;0.30;;
35558;SDS011;21661;50.794;-1.066;2023-07-28T11:09:07;0.77;;;0.25;;
35558;SDS011;21661;50.794;-1.066;2023-07-28T11:11:35;0.50;;;0.30;;
35558;SDS011;21661;50.794;-1.066;2023-07-28T11:14:02;0.88;;;0.50;;
35558;SDS011;21661;50.794;-1.066;2023-07-28T11:16:30;0.45;;;0.20;;
35558;SDS011;21661;50.794;-1.066;2023-07-28T11:19:01;1.00;;;0.30;;
35558;SDS011;21661;50.794;-1.066;2023-07-28T11:21:28;1.02;;;0.40;;
35558;SDS011;21661;50.794;-1.066;2023-07-28T11:23:54;2.22;;;0.22;;
35558;SDS011;21661;50.794;-1.066;2023-07-28T11:26:20;0.90;;;0.30;;
35558;SDS011;21661;50.794;-1.066;2023-07-28T11:28:47;0.93;;;0.50;;
35558;SDS011;21661;50.794;-1.066;2023-07-28T11:31:13;0.85;;;0.40;;
35558;SDS011;21661;50.794;-1.066;2023-07-28T11:33:39;0.50;;;0.20;;
35558;SDS011;21661;50.794;-1.066;2023-07-28T11:36:05;1.27;;;0.50;;
35558;SDS011;21661;50.794;-1.066;2023-07-28T11:38:32;1.00;;;0.30;;
35558;SDS011;21661;50.794;-1.066;2023-07-28T11:41:00;0.43;;;0.25;;
35558;SDS011;21661;50.794;-1.066;2023-07-28T11:43:27;1.17;;;0.43;;
35558;SDS011;21661;50.794;-1.066;2023-07-28T11:45:52;0.95;;;0.30;;
35558;SDS011;21661;50.794;-1.066;2023-07-28T11:48:18;1.42;;;0.50;;
35558;SDS011;21661;50.794;-1.066;2023-07-28T11:50:44;1.58;;;0.57;;
35558;SDS011;21661;50.794;-1.066;2023-07-28T11:53:10;1.10;;;0.52;;
35558;SDS011;21661;50.794;-1.066;2023-07-28T11:55:39;0.73;;;0.40;;
35558;SDS011;21661;50.794;-1.066;2023-07-28T11:58:05;1.63;;;0.40;;
35558;SDS011;21661;50.794;-1.066;2023-07-28T12:00:32;1.52;;;0.50;;
35558;SDS011;21661;50.794;-1.066;2023-07-28T12:05:31;1.30;;;0.60;;
35558;SDS011;21661;50.794;-1.066;2023-07-28T12:07:58;0.88;;;0.50;;
35558;SDS011;21661;50.794;-1.066;2023-07-28T12:10:24;1.05;;;0.50;;
35558;SDS011;21661;50.794;-1.066;2023-07-28T12:12:49;1.30;;;0.50;;
35558;SDS011;21661;50.794;-1.066;2023-07-28T12:15:19;1.00;;;0.60;;
35558;SDS011;21661;50.794;-1.066;2023-07-28T12:20:40;1.73;;;0.77;;
35558;SDS011;21661;50.794;-1.066;2023-07-28T12:23:07;1.90;;;0.80;;
35558;SDS011;21661;50.794;-1.066;2023-07-28T12:25:33;2.97;;;0.57;;
35558;SDS011;21661;50.794;-1.066;2023-07-28T12:28:01;1.33;;;0.63;;
35558;SDS011;21661;50.794;-1.066;2023-07-28T12:30:27;0.98;;;0.55;;
35558;SDS011;21661;50.794;-1.066;2023-07-28T12:32:53;1.42;;;0.75;;
35558;SDS011;21661;50.794;-1.066;2023-07-28T12:35:19;2.05;;;0.70;;
35558;SDS011;21661;50.794;-1.066;2023-07-28T12:37:48;1.48;;;0.77;;
35558;SDS011;21661;50.794;-1.066;2023-07-28T12:40:17;3.60;;;0.60;;
35558;SDS011;21661;50.794;-1.066;2023-07-28T12:42:44;2.05;;;0.82;;
35558;SDS011;21661;50.794;-1.066;2023-07-28T12:45:11;0.63;;;0.40;;
35558;SDS011;21661;50.794;-1.066;2023-07-28T12:47:37;1.73;;;0.60;;
35558;SDS011;21661;50.794;-1.066;2023-07-28T12:50:03;2.45;;;0.70;;
35558;SDS011;21661;50.794;-1.066;2023-07-28T12:52:31;0.90;;;0.60;;
35558;SDS011;21661;50.794;-1.066;2023-07-28T12:54:57;1.48;;;0.60;;
35558;SDS011;21661;50.794;-1.066;2023-07-28T12:57:23;1.23;;;0.57;;
35558;SDS011;21661;50.794;-1.066;2023-07-28T12:59:49;2.08;;;0.75;;
35558;SDS011;21661;50.794;-1.066;2023-07-28T13:02:15;1.95;;;0.70;;
35558;SDS011;21661;50.794;-1.066;2023-07-28T13:04:40;1.67;;;0.60;;
35558;SDS011;21661;50.794;-1.066;2023-07-28T13:07:06;0.90;;;0.50;;
35558;SDS011;21661;50.794;-1.066;2023-07-28T13:09:32;1.40;;;0.43;;
35558;SDS011;21661;50.794;-1.066;2023-07-28T13:11:57;1.17;;;0.60;;
35558;SDS011;21661;50.794;-1.066;2023-07-28T13:14:24;1.10;;;0.50;;
35558;SDS011;21661;50.794;-1.066;2023-07-28T13:16:50;1.73;;;0.77;;
35558;SDS011;21661;50.794;-1.066;2023-07-28T13:19:16;1.95;;;0.70;;
35558;SDS011;21661;50.794;-1.066;2023-07-28T13:21:42;1.05;;;0.60;;
35558;SDS011;21661;50.794;-1.066;2023-07-28T13:24:07;2.38;;;0.90;;
35558;SDS011;21661;50.794;-1.066;2023-07-28T13:26:33;2.17;;;0.80;;
35558;SDS011;21661;50.794;-1.066;2023-07-28T13:28:58;1.52;;;0.70;;
35558;SDS011;21661;50.794;-1.066;2023-07-28T13:31:26;2.75;;;0.80;;
35558;SDS011;21661;50.794;-1.066;2023-07-28T13:33:52;2.45;;;0.75;;
35558;SDS011;21661;50.794;-1.066;2023-07-28T13:36:18;1.40;;;0.75;;
35558;SDS011;21661;50.794;-1.066;2023-07-28T13:38:44;1.55;;;0.82;;
35558;SDS011;21661;50.794;-1.066;2023-07-28T13:41:09;1.73;;;0.75;;
35558;SDS011;21661;50.794;-1.066;2023-07-28T13:43:35;2.22;;;0.77;;
35558;SDS011;21661;50.794;-1.066;2023-07-28T13:46:03;1.88;;;0.77;;
35558;SDS011;21661;50.794;-1.066;2023-07-28T13:48:29;2.25;;;0.70;;
35558;SDS011;21661;50.794;-1.066;2023-07-28T13:50:56;2.65;;;0.90;;
35558;SDS011;21661;50.794;-1.066;2023-07-28T13:53:22;2.53;;;0.60;;
35558;SDS011;21661;50.794;-1.066;2023-07-28T13:55:48;3.20;;;0.95;;
35558;SDS011;21661;50.794;-1.066;2023-07-28T13:58:14;1.40;;;0.68;;
35558;SDS011;21661;50.794;-1.066;2023-07-28T14:00:39;2.05;;;0.77;;
35558;SDS011;21661;50.794;-1.066;2023-07-28T14:03:05;1.35;;;0.65;;
35558;SDS011;21661;50.794;-1.066;2023-07-28T14:05:30;1.33;;;0.70;;
35558;SDS011;21661;50.794;-1.066;2023-07-28T14:07:56;1.88;;;0.88;;
35558;SDS011;21661;50.794;-1.066;2023-07-28T14:10:22;2.17;;;0.90;;
35558;SDS011;21661;50.794;-1.066;2023-07-28T14:12:49;3.33;;;1.17;;
35558;SDS011;21661;50.794;-1.066;2023-07-28T14:15:14;2.03;;;0.90;;
35558;SDS011;21661;50.794;-1.066;2023-07-28T14:17:40;1.90;;;0.93;;
35558;SDS011;21661;50.794;-1.066;2023-07-28T14:20:06;2.40;;;0.70;;
35558;SDS011;21661;50.794;-1.066;2023-07-28T14:22:32;2.85;;;0.98;;
35558;SDS011;21661;50.794;-1.066;2023-07-28T14:24:57;3.60;;;1.02;;
35558;SDS011;21661;50.794;-1.066;2023-07-28T14:27:23;2.38;;;1.00;;
35558;SDS011;21661;50.794;-1.066;2023-07-28T14:29:48;2.28;;;1.00;;
35558;SDS011;21661;50.794;-1.066;2023-07-28T14:32:14;6.35;;;1.38;;
35558;SDS011;21661;50.794;-1.066;2023-07-28T14:34:40;2.92;;;1.20;;
35558;SDS011;21661;50.794;-1.066;2023-07-28T14:37:07;1.83;;;0.90;;
35558;SDS011;21661;50.794;-1.066;2023-07-28T14:39:33;6.05;;;1.08;;